Time;durP1;ratioP1;P1;durP2;ratioP2;P2;SDS_P1;SDS_P2;PMS_P1;PMS_P2;Temp;Humidity;BMP_temperature;BMP_pressure;BME280_temperature;BME280_humidity;BME280_pressure;Samples;Min_cycle;Max_cycle;Signal;HPM_P1;HPM_P2
2022/08/14 00:02:21;;;;;;;;;;;20.40;94.90;;;;;;6208522;22;19923;-87
2022/08/14 00:04:47;;;;;;;;;;;20.40;95.00;;;;;;6208766;22;19992;-88
2022/08/14 00:07:12;;;;;;;;;;;20.40;95.40;;;;;;6183113;22;19919;-88
2022/08/14 00:09:42;;;;;;;;;;;20.30;95.80;;;;;;6184021;22;19923;-88
2022/08/14 00:12:09;;;;;;;;;;;20.30;95.40;;;;;;6204616;22;19993;-87
2022/08/14 00:14:36;;;;;;;;;;;20.20;96.60;;;;;;6183276;22;19978;-88
2022/08/14 00:17:04;;;;;;;;;;;20.10;95.50;;;;;;6208656;22;19919;-88
2022/08/14 00:19:48;;;;;;;;;;;20.20;96.20;;;;;;6210048;22;19927;-87
2022/08/14 00:22:17;;;;;;;;;;;20.10;96.50;;;;;;6206730;22;20328;-87
2022/08/14 00:24:44;;;;;;;;;;;20.00;97.10;;;;;;6208996;22;19926;-87
2022/08/14 00:27:13;;;;;;;;;;;20.00;95.30;;;;;;6206539;22;20277;-87
2022/08/14 00:29:40;;;;;;;;;;;20.00;95.70;;;;;;6206569;22;19986;-88
2022/08/14 00:32:06;;;;;;;;;;;20.00;95.00;;;;;;6180819;22;19922;-87
2022/08/14 00:34:32;;;;;;;;;;;20.10;94.50;;;;;;6181045;22;19923;-87
2022/08/14 00:36:57;;;;;;;;;;;20.10;94.20;;;;;;6180834;22;19919;-88
2022/08/14 00:39:24;;;;;;;;;;;20.10;93.70;;;;;;6205652;22;19994;-87
2022/08/14 00:41:50;;;;;;;;;;;20.20;93.00;;;;;;6206007;22;19926;-87
2022/08/14 00:44:16;;;;;;;;;;;20.20;92.90;;;;;;6203038;22;19919;-88
2022/08/14 00:46:45;;;;;;;;;;;20.20;92.80;;;;;;6206693;22;19951;-88
2022/08/14 00:49:16;;;;;;;;;;;20.10;94.10;;;;;;6255814;22;20240;-87
2022/08/14 00:51:42;;;;;;;;;;;20.10;95.50;;;;;;6207515;22;19970;-87
2022/08/14 00:54:15;;;;;;;;;;;20.00;94.50;;;;;;6179506;22;19923;-87
2022/08/14 00:56:42;;;;;;;;;;;19.90;95.30;;;;;;6209956;22;19991;-87
2022/08/14 00:59:08;;;;;;;;;;;19.80;96.10;;;;;;6180343;22;19926;-88
2022/08/14 01:01:35;;;;;;;;;;;19.80;95.50;;;;;;6230841;22;20302;-87
2022/08/14 01:04:05;;;;;;;;;;;19.80;95.20;;;;;;6233182;22;19923;-87
2022/08/14 01:06:31;;;;;;;;;;;19.80;95.70;;;;;;6203807;22;19919;-87
2022/08/14 01:08:58;;;;;;;;;;;19.70;96.20;;;;;;6205700;22;19961;-87
2022/08/14 01:11:27;;;;;;;;;;;19.70;95.60;;;;;;6203351;22;20387;-87
2022/08/14 01:13:59;;;;;;;;;;;19.70;95.80;;;;;;6206357;22;20003;-88
2022/08/14 01:16:31;;;;;;;;;;;19.70;96.80;;;;;;6253715;22;19934;-87
2022/08/14 01:21:41;;;;;;;;;;;19.60;96.60;;;;;;6210622;22;20260;-87
2022/08/14 01:24:07;;;;;;;;;;;19.60;96.80;;;;;;6204299;22;19919;-87
2022/08/14 01:26:33;;;;;;;;;;;19.60;97.00;;;;;;6176662;22;19981;-87
2022/08/14 01:29:00;;;;;;;;;;;19.60;97.00;;;;;;6206636;22;19957;-87
2022/08/14 01:31:26;;;;;;;;;;;19.50;96.40;;;;;;6180413;22;20009;-88
2022/08/14 01:33:54;;;;;;;;;;;19.50;95.90;;;;;;6180353;22;19923;-88
2022/08/14 01:36:20;;;;;;;;;;;19.50;96.40;;;;;;6203706;22;19946;-87
2022/08/14 01:38:50;;;;;;;;;;;19.50;96.80;;;;;;6182418;22;19951;-87
2022/08/14 01:41:19;;;;;;;;;;;19.50;96.60;;;;;;6209144;22;19994;-87
2022/08/14 01:44:04;;;;;;;;;;;19.50;97.40;;;;;;6183436;22;19965;-87
2022/08/14 01:46:38;;;;;;;;;;;19.40;96.80;;;;;;6212178;22;19926;-88
2022/08/14 01:49:05;;;;;;;;;;;19.40;96.60;;;;;;6182368;22;19925;-88
2022/08/14 01:51:31;;;;;;;;;;;19.40;97.00;;;;;;6207947;22;19981;-88
2022/08/14 01:53:57;;;;;;;;;;;19.40;97.60;;;;;;6208694;22;19923;-88
2022/08/14 01:56:43;;;;;;;;;;;19.60;97.00;;;;;;6232409;22;20379;-88
2022/08/14 01:59:20;;;;;;;;;;;19.40;98.60;;;;;;6214073;22;19927;-87
2022/08/14 02:01:50;;;;;;;;;;;19.30;98.70;;;;;;6207993;22;19919;-87
2022/08/14 02:04:19;;;;;;;;;;;19.20;98.60;;;;;;6183910;22;19925;-87
2022/08/14 02:06:45;;;;;;;;;;;19.10;97.80;;;;;;6183844;22;19923;-88
2022/08/14 02:09:11;;;;;;;;;;;19.20;98.70;;;;;;6206063;22;19923;-87
2022/08/14 02:11:36;;;;;;;;;;;19.20;99.50;;;;;;6208190;22;19990;-88
2022/08/14 02:14:10;;;;;;;;;;;19.30;99.90;;;;;;6183028;22;20002;-87
2022/08/14 02:16:37;;;;;;;;;;;19.00;98.20;;;;;;6232838;22;19919;-87
2022/08/14 02:19:14;;;;;;;;;;;19.30;98.30;;;;;;6208685;22;19923;-87
2022/08/14 02:21:40;;;;;;;;;;;19.10;98.30;;;;;;6185497;22;19916;-88
2022/08/14 02:24:07;;;;;;;;;;;19.10;99.20;;;;;;6209699;22;19919;-87
2022/08/14 02:26:40;;;;;;;;;;;19.10;99.10;;;;;;6213457;22;19919;-87
2022/08/14 02:29:05;;;;;;;;;;;19.10;99.40;;;;;;6223427;23;20395;-88
2022/08/14 02:31:33;;;;;;;;;;;19.10;99.90;;;;;;6234565;22;19960;-87
2022/08/14 02:33:59;;;;;;;;;;;19.00;99.30;;;;;;6187828;22;19923;-87
2022/08/14 02:36:25;;;;;;;;;;;18.70;99.80;;;;;;6210069;22;19919;-88
2022/08/14 02:38:53;;;;;;;;;;;18.90;99.90;;;;;;6211539;22;20298;-87
2022/08/14 02:41:18;;;;;;;;;;;18.90;99.90;;;;;;6207105;22;20352;-87
2022/08/14 02:43:45;;;;;;;;;;;18.90;99.90;;;;;;6211037;22;19982;-87
2022/08/14 02:46:11;;;;;;;;;;;19.10;99.50;;;;;;6210814;22;20296;-87
2022/08/14 02:48:38;;;;;;;;;;;18.50;99.60;;;;;;6211505;22;19934;-87
2022/08/14 02:51:09;;;;;;;;;;;18.90;99.50;;;;;;6234748;22;19919;-87
2022/08/14 02:53:35;;;;;;;;;;;18.90;99.90;;;;;;6181434;22;19915;-88
2022/08/14 02:56:05;;;;;;;;;;;18.80;99.90;;;;;;6234582;22;19919;-87
2022/08/14 02:58:32;;;;;;;;;;;18.90;99.90;;;;;;6233174;22;19928;-88
2022/08/14 03:00:59;;;;;;;;;;;18.90;99.10;;;;;;6178667;22;19926;-87
2022/08/14 03:03:27;;;;;;;;;;;18.80;99.40;;;;;;6182134;22;19919;-88
2022/08/14 03:05:56;;;;;;;;;;;19.20;99.90;;;;;;6208302;22;19990;-87
2022/08/14 03:08:22;;;;;;;;;;;18.90;99.90;;;;;;6202645;22;19919;-87
2022/08/14 03:10:49;;;;;;;;;;;18.50;99.90;;;;;;6232274;22;19926;-87
2022/08/14 03:13:17;;;;;;;;;;;18.80;99.90;;;;;;6181025;22;19923;-88
2022/08/14 03:15:45;;;;;;;;;;;19.20;99.90;;;;;;6208097;22;19923;-87
2022/08/14 03:18:13;;;;;;;;;;;20.00;99.90;;;;;;6205218;22;20444;-87
2022/08/14 03:20:38;;;;;;;;;;;19.20;99.90;;;;;;6206931;22;20757;-88
2022/08/14 03:23:07;;;;;;;;;;;18.90;99.90;;;;;;6179343;22;19919;-88
2022/08/14 03:25:34;;;;;;;;;;;18.90;99.90;;;;;;6231989;22;19958;-87
2022/08/14 03:28:02;;;;;;;;;;;18.90;99.90;;;;;;6184461;22;19954;-88
2022/08/14 03:30:34;;;;;;;;;;;18.70;99.90;;;;;;6187398;22;20244;-88
2022/08/14 03:33:00;;;;;;;;;;;19.00;99.90;;;;;;6183039;22;20638;-88
2022/08/14 03:35:25;;;;;;;;;;;18.60;99.90;;;;;;6179203;22;19923;-88
2022/08/14 03:38:10;;;;;;;;;;;18.60;99.90;;;;;;6201328;23;19973;-88
2022/08/14 03:40:45;;;;;;;;;;;18.60;99.90;;;;;;6177889;23;19983;-88
2022/08/14 03:43:11;;;;;;;;;;;18.70;99.90;;;;;;6174881;23;20287;-87
2022/08/14 03:45:38;;;;;;;;;;;18.60;99.90;;;;;;6150368;23;20023;-87
2022/08/14 03:48:05;;;;;;;;;;;;;;;;;;6173979;23;19920;-87
2022/08/14 03:50:31;;;;;;;;;;;18.40;99.90;;;;;;6199964;23;19924;-87
2022/08/14 03:53:00;;;;;;;;;;;18.40;99.90;;;;;;6175525;23;20624;-88
2022/08/14 03:55:27;;;;;;;;;;;18.30;99.90;;;;;;6148833;23;19930;-88
2022/08/14 03:57:54;;;;;;;;;;;18.20;99.90;;;;;;6177017;23;19948;-88
2022/08/14 04:00:20;;;;;;;;;;;18.20;99.90;;;;;;6172199;23;19920;-87
2022/08/14 04:02:46;;;;;;;;;;;18.20;99.90;;;;;;6175547;23;19989;-87
2022/08/14 04:05:14;;;;;;;;;;;18.20;99.90;;;;;;6149457;23;20812;-87
2022/08/14 04:07:40;;;;;;;;;;;18.10;99.90;;;;;;6175668;23;19926;-88
2022/08/14 04:10:07;;;;;;;;;;;18.20;99.90;;;;;;6223458;22;19919;-91
2022/08/14 04:12:33;;;;;;;;;;;17.70;99.90;;;;;;6182435;22;20340;-92
2022/08/14 04:15:01;;;;;;;;;;;18.20;99.90;;;;;;6185258;22;19930;-91
2022/08/14 04:17:28;;;;;;;;;;;18.30;99.90;;;;;;6197577;22;20312;-91
2022/08/14 04:20:02;;;;;;;;;;;18.10;99.90;;;;;;6201527;22;20336;-91
2022/08/14 04:22:36;;;;;;;;;;;18.20;99.90;;;;;;6196810;22;19990;-91
2022/08/14 04:25:02;;;;;;;;;;;18.10;99.90;;;;;;6187190;22;19926;-90
2022/08/14 04:27:29;;;;;;;;;;;18.10;99.90;;;;;;6189427;22;19919;-91
2022/08/14 04:29:56;;;;;;;;;;;18.10;99.90;;;;;;6202345;22;19926;-91
2022/08/14 04:32:26;;;;;;;;;;;18.10;99.90;;;;;;6252403;22;19943;-92
2022/08/14 04:34:52;;;;;;;;;;;18.10;99.90;;;;;;6200624;22;19920;-91
2022/08/14 04:45:47;;;;;;;;;;;18.10;99.90;;;;;;6241651;22;20001;-91
2022/08/14 04:48:15;;;;;;;;;;;18.10;99.90;;;;;;6235133;22;19919;-92
2022/08/14 04:50:55;;;;;;;;;;;18.10;99.90;;;;;;6207693;22;19919;-92
2022/08/14 04:53:22;;;;;;;;;;;18.10;99.90;;;;;;6230768;22;19946;-92
2022/08/14 04:55:48;;;;;;;;;;;18.00;99.90;;;;;;6182754;22;19930;-91
2022/08/14 04:58:16;;;;;;;;;;;18.00;99.90;;;;;;6206710;22;19919;-91
2022/08/14 05:00:44;;;;;;;;;;;18.10;99.90;;;;;;6230277;22;19915;-91
2022/08/14 05:03:09;;;;;;;;;;;18.10;99.90;;;;;;6204599;22;19919;-91
2022/08/14 05:05:35;;;;;;;;;;;18.10;99.90;;;;;;6205935;22;19919;-90
2022/08/14 05:08:11;;;;;;;;;;;18.00;99.90;;;;;;6183437;22;19923;-91
2022/08/14 05:10:40;;;;;;;;;;;18.00;99.90;;;;;;6185236;22;20355;-91
2022/08/14 05:13:06;;;;;;;;;;;18.10;99.90;;;;;;6232714;22;19963;-91
2022/08/14 05:15:35;;;;;;;;;;;18.10;99.90;;;;;;6184297;22;19923;-91
2022/08/14 05:18:11;;;;;;;;;;;18.10;99.90;;;;;;6208951;22;19923;-91
2022/08/14 05:20:39;;;;;;;;;;;18.10;99.90;;;;;;6210846;22;19994;-90
2022/08/14 05:23:06;;;;;;;;;;;18.20;99.90;;;;;;6182669;22;19915;-91
2022/08/14 05:25:32;;;;;;;;;;;18.20;99.90;;;;;;6208853;22;19919;-91
2022/08/14 05:28:19;;;;;;;;;;;18.30;99.90;;;;;;6211614;22;19919;-91
2022/08/14 05:30:45;;;;;;;;;;;18.40;99.90;;;;;;6232829;22;19990;-91
2022/08/14 05:33:13;;;;;;;;;;;18.40;99.90;;;;;;6205812;22;19959;-92
2022/08/14 05:35:39;;;;;;;;;;;18.50;99.90;;;;;;6232006;22;20336;-91
2022/08/14 05:38:09;;;;;;;;;;;18.50;99.90;;;;;;6207110;22;19982;-92
2022/08/14 05:40:35;;;;;;;;;;;18.60;99.90;;;;;;6183490;22;19923;-91
2022/08/14 05:43:01;;;;;;;;;;;18.60;99.90;;;;;;6208498;22;19923;-91
2022/08/14 05:45:26;;;;;;;;;;;18.70;99.90;;;;;;6205842;22;19926;-91
2022/08/14 05:47:52;;;;;;;;;;;18.70;99.90;;;;;;6183319;22;19919;-90
2022/08/14 05:50:17;;;;;;;;;;;18.80;99.90;;;;;;6233279;22;19939;-91
2022/08/14 05:52:45;;;;;;;;;;;18.90;99.90;;;;;;6185690;22;19920;-91
2022/08/14 05:55:10;;;;;;;;;;;18.90;99.90;;;;;;6232408;22;19992;-91
2022/08/14 05:57:53;;;;;;;;;;;19.00;99.90;;;;;;6234795;22;20407;-91
2022/08/14 06:00:20;;;;;;;;;;;19.10;99.90;;;;;;6206083;22;19969;-91
2022/08/14 06:02:46;;;;;;;;;;;19.20;99.90;;;;;;6233067;22;19915;-91
2022/08/14 06:05:14;;;;;;;;;;;19.30;99.90;;;;;;6208994;22;19919;-91
2022/08/14 06:07:40;;;;;;;;;;;19.30;99.90;;;;;;6234058;22;19919;-91
2022/08/14 06:10:07;;;;;;;;;;;19.30;99.90;;;;;;6231317;22;19919;-92
2022/08/14 06:12:36;;;;;;;;;;;19.40;99.90;;;;;;6236965;22;19927;-91
2022/08/14 06:15:07;;;;;;;;;;;19.40;99.90;;;;;;6262028;22;19929;-92
2022/08/14 06:17:45;;;;;;;;;;;19.50;99.90;;;;;;6237979;22;20240;-91
2022/08/14 06:20:12;;;;;;;;;;;19.50;99.90;;;;;;6210733;22;19931;-91
2022/08/14 06:22:38;;;;;;;;;;;19.50;99.90;;;;;;6265634;22;19973;-92
2022/08/14 06:25:04;;;;;;;;;;;19.60;99.90;;;;;;6238554;22;19950;-92
2022/08/14 06:27:40;;;;;;;;;;;19.60;99.90;;;;;;6213982;22;19919;-91
2022/08/14 06:30:07;;;;;;;;;;;19.80;99.90;;;;;;6210312;22;20596;-91
2022/08/14 06:32:36;;;;;;;;;;;19.80;99.90;;;;;;6185385;22;19919;-91
2022/08/14 06:35:06;;;;;;;;;;;19.90;99.90;;;;;;6211272;22;20392;-91
2022/08/14 06:37:41;;;;;;;;;;;20.00;99.90;;;;;;6236341;22;19923;-92
2022/08/14 06:40:07;;;;;;;;;;;20.00;99.90;;;;;;6210212;22;20297;-91
2022/08/14 06:42:37;;;;;;;;;;;20.10;99.90;;;;;;6185140;22;19926;-92
2022/08/14 06:45:07;;;;;;;;;;;20.20;99.90;;;;;;6206666;22;19962;-91
2022/08/14 06:47:34;;;;;;;;;;;20.30;99.90;;;;;;6232319;22;19941;-92
2022/08/14 06:50:06;;;;;;;;;;;20.40;99.90;;;;;;6206345;22;19919;-91
2022/08/14 06:52:31;;;;;;;;;;;20.50;99.90;;;;;;6209795;22;19923;-91
2022/08/14 06:54:57;;;;;;;;;;;20.60;99.90;;;;;;6207498;22;19942;-91
2022/08/14 06:57:23;;;;;;;;;;;20.70;99.90;;;;;;6231217;22;19919;-91
2022/08/14 06:59:48;;;;;;;;;;;20.80;99.90;;;;;;6207601;22;20449;-92
2022/08/14 07:07:43;;;;;;;;;;;21.10;99.90;;;;;;6209380;22;19926;-92
2022/08/14 07:10:08;;;;;;;;;;;21.20;99.90;;;;;;6179001;22;19923;-92
2022/08/14 07:12:35;;;;;;;;;;;21.30;99.90;;;;;;6207243;22;20243;-92
2022/08/14 07:15:04;;;;;;;;;;;21.50;98.30;;;;;;6236596;22;19968;-91
2022/08/14 07:17:33;;;;;;;;;;;21.60;99.20;;;;;;6184111;22;19954;-91
2022/08/14 07:20:22;;;;;;;;;;;21.80;98.40;;;;;;6208546;22;19926;-88
2022/08/14 07:23:12;;;;;;;;;;;22.10;98.70;;;;;;6248946;22;19919;-87
2022/08/14 07:25:50;;;;;;;;;;;22.10;97.90;;;;;;6183155;22;19978;-87
2022/08/14 07:28:22;;;;;;;;;;;22.40;96.90;;;;;;6180726;22;19965;-88
2022/08/14 07:31:11;;;;;;;;;;;22.60;96.30;;;;;;6182954;22;19920;-87
2022/08/14 07:33:54;;;;;;;;;;;22.80;95.80;;;;;;6192197;22;19937;-87
2022/08/14 07:40:01;;;;;;;;;;;23.20;94.90;;;;;;6190232;22;20610;-87
2022/08/14 07:42:54;;;;;;;;;;;23.60;94.80;;;;;;6210355;22;20001;-87
2022/08/14 07:45:40;;;;;;;;;;;24.00;93.80;;;;;;6235465;22;20214;-86
2022/08/14 07:51:22;;;;;;;;;;;24.30;91.90;;;;;;6190107;22;19968;-88
2022/08/14 07:54:15;;;;;;;;;;;;;;;;;;;;;
2022/08/14 07:56:49;;;;;;;;;;;24.80;88.60;;;;;;6144023;22;19972;-87
2022/08/14 07:59:21;;;;;;;;;;;25.00;89.90;;;;;;6205803;22;19925;-88
2022/08/14 08:02:02;;;;;;;;;;;;;;;;;;;;;
2022/08/14 08:04:34;;;;;;;;;;;25.50;87.70;;;;;;6233046;22;20298;-87
2022/08/14 08:07:11;;;;;;;;;;;25.70;86.40;;;;;;6204947;22;20614;-87
2022/08/14 08:09:41;;;;;;;;;;;25.90;84.50;;;;;;6182930;22;19919;-87
2022/08/14 08:12:10;;;;;;;;;;;26.00;81.80;;;;;;6259190;22;19954;-87
2022/08/14 08:14:42;;;;;;;;;;;26.20;83.80;;;;;;6232353;22;21045;-87
2022/08/14 08:17:09;;;;;;;;;;;26.40;81.90;;;;;;6226552;22;20837;-87
2022/08/14 08:19:37;;;;;;;;;;;;;;;;;;6184832;22;19919;-87
2022/08/14 08:22:06;;;;;;;;;;;26.80;80.00;;;;;;6234121;22;19919;-87
2022/08/14 08:24:34;;;;;;;;;;;27.00;75.70;;;;;;6186524;22;19926;-87
2022/08/14 08:27:26;;;;;;;;;;;27.10;71.60;;;;;;6230733;22;19919;-88
2022/08/14 08:30:03;;;;;;;;;;;27.20;70.50;;;;;;6183000;22;19919;-88
2022/08/14 08:36:15;;;;;;;;;;;27.50;69.80;;;;;;6190764;22;19923;-87
2022/08/14 08:38:41;;;;;;;;;;;27.80;68.70;;;;;;6186078;22;20057;-87
2022/08/14 08:41:09;;;;;;;;;;;27.90;65.80;;;;;;6181360;22;19950;-88
2022/08/14 08:43:34;;;;;;;;;;;28.10;65.10;;;;;;6211968;22;19922;-87
2022/08/14 08:46:04;;;;;;;;;;;28.30;64.90;;;;;;6218702;23;19915;-88
2022/08/14 08:48:50;;;;;;;;;;;28.30;63.00;;;;;;6209345;22;19958;-87
2022/08/14 08:51:21;;;;;;;;;;;28.40;61.70;;;;;;6182761;22;19919;-88
2022/08/14 08:54:14;;;;;;;;;;;28.50;65.40;;;;;;6183993;22;19919;-88
2022/08/14 08:57:06;;;;;;;;;;;28.60;63.40;;;;;;6204055;22;19919;-87
2022/08/14 08:59:33;;;;;;;;;;;28.60;58.20;;;;;;6211190;22;19928;-87
2022/08/14 09:02:05;;;;;;;;;;;28.70;67.60;;;;;;6182860;22;19920;-87
2022/08/14 09:04:36;;;;;;;;;;;28.80;57.40;;;;;;6184380;22;19994;-88
2022/08/14 09:07:06;;;;;;;;;;;28.80;64.60;;;;;;6209370;22;19927;-88
2022/08/14 09:09:33;;;;;;;;;;;28.90;56.40;;;;;;6210418;22;20264;-88
2022/08/14 09:12:06;;;;;;;;;;;29.00;56.80;;;;;;6197895;23;20067;-88
2022/08/14 09:14:33;;;;;;;;;;;29.20;58.30;;;;;;6231965;22;19930;-88
2022/08/14 09:17:00;;;;;;;;;;;29.30;57.50;;;;;;6230784;22;20012;-87
2022/08/14 09:19:27;;;;;;;;;;;29.50;56.40;;;;;;6180258;22;19947;-87
2022/08/14 09:21:53;;;;;;;;;;;29.50;54.40;;;;;;6186453;22;19923;-87
2022/08/14 09:24:19;;;;;;;;;;;29.60;53.60;;;;;;6206964;22;19926;-87
2022/08/14 09:26:47;;;;;;;;;;;29.80;53.20;;;;;;6205727;22;20161;-87
2022/08/14 09:29:15;;;;;;;;;;;30.00;53.60;;;;;;6163307;23;20298;-88
2022/08/14 09:31:43;;;;;;;;;;;30.20;52.70;;;;;;6142439;23;19924;-87
2022/08/14 09:34:29;;;;;;;;;;;30.30;53.80;;;;;;6160365;23;20321;-88
2022/08/14 09:37:13;;;;;;;;;;;30.50;51.00;;;;;;6111491;23;19927;-88
2022/08/14 09:39:44;;;;;;;;;;;30.60;51.70;;;;;;6140345;23;19995;-88
2022/08/14 09:42:43;;;;;;;;;;;30.70;51.90;;;;;;6139857;23;20138;-88
2022/08/14 09:45:29;;;;;;;;;;;30.70;50.60;;;;;;6057156;23;19925;-89
2022/08/14 09:47:55;;;;;;;;;;;30.70;50.20;;;;;;6108189;23;19925;-89
2022/08/14 09:50:23;;;;;;;;;;;30.90;50.40;;;;;;6130444;23;19924;-87
2022/08/14 09:52:56;;;;;;;;;;;30.90;51.30;;;;;;6113434;23;19927;-88
2022/08/14 09:55:26;;;;;;;;;;;31.00;50.50;;;;;;6134785;23;19928;-88
2022/08/14 09:58:10;;;;;;;;;;;31.10;49.50;;;;;;6136186;23;19920;-88
2022/08/14 10:00:58;;;;;;;;;;;31.10;48.10;;;;;;6112439;23;20019;-88
2022/08/14 10:03:29;;;;;;;;;;;31.10;49.10;;;;;;6113953;23;20051;-87
2022/08/14 10:06:06;;;;;;;;;;;31.20;47.50;;;;;;6153527;22;19919;-87
2022/08/14 10:08:54;;;;;;;;;;;31.40;51.40;;;;;;6200471;22;20289;-88
2022/08/14 10:11:26;;;;;;;;;;;31.30;49.10;;;;;;6226097;22;19922;-87
2022/08/14 10:14:03;;;;;;;;;;;31.40;48.60;;;;;;6206318;22;19919;-88
2022/08/14 10:16:39;;;;;;;;;;;31.50;48.50;;;;;;6177767;22;19966;-87
2022/08/14 10:19:06;;;;;;;;;;;31.70;49.50;;;;;;6199729;22;19927;-87
2022/08/14 10:21:33;;;;;;;;;;;31.70;47.10;;;;;;6180388;22;20333;-87
2022/08/14 10:24:07;;;;;;;;;;;31.90;46.90;;;;;;6203544;22;19926;-87
2022/08/14 10:26:41;;;;;;;;;;;32.00;47.20;;;;;;6228457;22;19961;-88
2022/08/14 10:29:09;;;;;;;;;;;31.90;45.60;;;;;;6199523;22;19919;-87
2022/08/14 10:31:36;;;;;;;;;;;31.90;46.50;;;;;;6204872;22;19923;-88
2022/08/14 10:34:06;;;;;;;;;;;31.90;45.30;;;;;;6202063;22;19919;-87
2022/08/14 10:36:38;;;;;;;;;;;32.00;45.60;;;;;;6199174;22;20020;-87
2022/08/14 10:39:14;;;;;;;;;;;32.10;47.60;;;;;;6175658;22;19915;-87
2022/08/14 10:41:40;;;;;;;;;;;32.00;46.30;;;;;;6208036;22;19915;-88
2022/08/14 10:44:17;;;;;;;;;;;32.10;46.20;;;;;;6197715;22;19919;-88
2022/08/14 10:46:48;;;;;;;;;;;32.10;45.20;;;;;;6182994;22;19919;-88
2022/08/14 10:49:25;;;;;;;;;;;32.10;46.50;;;;;;6205923;22;19922;-86
2022/08/14 10:52:14;;;;;;;;;;;32.20;47.60;;;;;;6176018;22;19929;-88
2022/08/14 10:55:06;;;;;;;;;;;32.40;46.50;;;;;;6206694;22;19923;-88
2022/08/14 10:57:35;;;;;;;;;;;32.60;45.80;;;;;;6176627;22;19930;-88
2022/08/14 11:00:17;;;;;;;;;;;32.80;45.80;;;;;;6182466;22;19950;-87
2022/08/14 11:02:56;;;;;;;;;;;32.80;44.90;;;;;;6179237;22;19919;-87
2022/08/14 11:05:54;;;;;;;;;;;33.00;45.70;;;;;;6176901;22;19919;-87
2022/08/14 11:08:55;;;;;;;;;;;33.00;45.50;;;;;;6202026;22;20417;-87
2022/08/14 11:14:13;;;;;;;;;;;32.60;43.40;;;;;;6200740;22;20062;-87
2022/08/14 11:16:54;;;;;;;;;;;32.50;44.20;;;;;;6183134;22;20609;-88
2022/08/14 11:19:22;;;;;;;;;;;32.50;44.50;;;;;;6176176;22;19965;-86
2022/08/14 11:22:14;;;;;;;;;;;32.70;46.80;;;;;;6181553;22;19919;-87
2022/08/14 11:24:50;;;;;;;;;;;32.60;43.80;;;;;;6202796;22;19951;-87
2022/08/14 11:27:20;;;;;;;;;;;32.70;43.60;;;;;;6177144;22;20403;-87
2022/08/14 11:30:08;;;;;;;;;;;;;;;;;;;;;
2022/08/14 11:32:41;;;;;;;;;;;32.00;44.10;;;;;;6201641;22;20309;-86
2022/08/14 11:35:13;;;;;;;;;;;32.10;44.90;;;;;;6201886;22;20367;-86
2022/08/14 11:58:50;;;;;;;;;;;;;;;;;;;;;
2022/08/14 12:48:27;;;;;;;;;;;32.70;41.00;;;;;;6230303;22;20764;-81
2022/08/14 12:50:53;;;;;;;;;;;32.80;41.90;;;;;;6225365;23;19963;-86
2022/08/14 12:53:27;;;;;;;;;;;33.00;42.20;;;;;;6141976;23;19951;-87
2022/08/14 12:55:57;;;;;;;;;;;33.10;42.70;;;;;;6173900;23;19923;-86
2022/08/14 13:02:29;;;;;;;;;;;33.40;41.60;;;;;;6082799;23;19921;-87
2022/08/14 13:08:46;;;;;;;;;;;33.80;40.50;;;;;;6024875;23;20004;-92
2022/08/14 13:11:43;;;;;;;;;;;33.90;40.80;;;;;;5941556;24;20002;-87
2022/08/14 13:14:32;;;;;;;;;;;33.80;41.00;;;;;;5984001;23;19921;-86
2022/08/14 14:33:53;;;;;;;;;;;;;;;;;;;;;
2022/08/14 17:39:12;;;;;;;;;;;29.50;51.20;;;;;;6214014;22;19919;-93
2022/08/14 17:41:41;;;;;;;;;;;29.40;51.50;;;;;;6272336;22;19906;-92
2022/08/14 17:44:11;;;;;;;;;;;29.40;53.20;;;;;;6227227;22;19990;-92
2022/08/14 17:46:38;;;;;;;;;;;29.30;52.10;;;;;;6209493;22;20139;-92
2022/08/14 17:49:07;;;;;;;;;;;29.20;51.90;;;;;;6245122;22;19919;-93
2022/08/14 17:51:35;;;;;;;;;;;29.20;52.50;;;;;;6239768;22;19910;-93
2022/08/14 17:54:02;;;;;;;;;;;29.10;52.20;;;;;;6261718;22;19922;-93
2022/08/14 17:56:27;;;;;;;;;;;29.10;52.90;;;;;;6233351;22;19902;-94
2022/08/14 17:58:54;;;;;;;;;;;29.00;53.30;;;;;;6252185;22;19930;-94
2022/08/14 18:01:20;;;;;;;;;;;29.00;53.80;;;;;;6241892;22;20243;-93
2022/08/14 18:03:47;;;;;;;;;;;28.90;54.80;;;;;;6239968;22;19923;-93
2022/08/14 18:06:17;;;;;;;;;;;28.80;54.30;;;;;;6241095;22;20323;-93
2022/08/14 18:08:42;;;;;;;;;;;28.80;55.00;;;;;;6261947;22;19922;-93
2022/08/14 18:11:12;;;;;;;;;;;28.80;53.40;;;;;;6239062;22;19993;-92
2022/08/14 18:13:38;;;;;;;;;;;28.70;54.40;;;;;;6239416;22;19929;-92
2022/08/14 18:16:16;;;;;;;;;;;28.60;54.20;;;;;;6248125;22;19963;-93
2022/08/14 18:18:44;;;;;;;;;;;28.40;55.30;;;;;;6215637;22;19958;-93
2022/08/14 18:21:09;;;;;;;;;;;28.40;56.50;;;;;;6218031;22;20357;-94
2022/08/14 18:23:35;;;;;;;;;;;28.40;56.10;;;;;;6241106;22;19993;-93
2022/08/14 18:26:01;;;;;;;;;;;28.30;57.00;;;;;;6217209;22;19919;-92
2022/08/14 18:28:27;;;;;;;;;;;28.20;57.40;;;;;;6210989;22;19919;-94
2022/08/14 18:31:08;;;;;;;;;;;28.20;56.00;;;;;;6213714;22;19919;-93
2022/08/14 18:33:34;;;;;;;;;;;28.10;56.00;;;;;;6211173;22;19970;-92
2022/08/14 18:36:02;;;;;;;;;;;28.10;59.00;;;;;;6216403;22;20381;-95
2022/08/14 18:38:29;;;;;;;;;;;28.00;60.50;;;;;;6241103;22;20275;-94
2022/08/14 18:40:55;;;;;;;;;;;27.90;60.10;;;;;;6217049;22;20017;-95
2022/08/14 18:43:39;;;;;;;;;;;27.80;61.10;;;;;;6237362;22;19957;-94
2022/08/14 18:46:05;;;;;;;;;;;27.80;63.10;;;;;;6240776;22;19925;-95
2022/08/14 18:48:31;;;;;;;;;;;27.70;65.10;;;;;;6216221;22;19919;-91
2022/08/14 18:51:01;;;;;;;;;;;27.50;65.30;;;;;;6216979;22;20267;-95
2022/08/14 18:53:29;;;;;;;;;;;27.40;64.50;;;;;;6218442;22;19919;-93
2022/08/14 18:56:01;;;;;;;;;;;27.30;67.40;;;;;;6230172;22;19922;-93
2022/08/14 18:58:46;;;;;;;;;;;27.20;68.10;;;;;;6217366;22;19922;-93
2022/08/14 19:01:20;;;;;;;;;;;27.10;65.90;;;;;;6223781;22;19982;-93
2022/08/14 19:03:48;;;;;;;;;;;27.00;70.90;;;;;;6225565;22;19919;-92
2022/08/14 19:06:14;;;;;;;;;;;27.00;70.40;;;;;;6222967;22;19923;-92
2022/08/14 19:08:40;;;;;;;;;;;26.80;69.90;;;;;;6214240;22;20398;-92
2022/08/14 19:11:15;;;;;;;;;;;26.70;71.40;;;;;;6215522;22;19923;-92
2022/08/14 19:13:41;;;;;;;;;;;26.60;73.50;;;;;;6235557;22;19919;-91
2022/08/14 19:16:11;;;;;;;;;;;26.50;70.90;;;;;;6241968;22;19919;-92
2022/08/14 19:18:52;;;;;;;;;;;26.50;73.50;;;;;;6235471;22;20794;-92
2022/08/14 19:21:25;;;;;;;;;;;26.40;73.40;;;;;;6232596;22;19930;-92
2022/08/14 19:24:06;;;;;;;;;;;26.30;74.40;;;;;;6208972;22;20521;-92
2022/08/14 19:26:32;;;;;;;;;;;26.20;77.70;;;;;;6232079;22;20011;-92
2022/08/14 19:29:00;;;;;;;;;;;26.10;78.40;;;;;;6209986;22;19990;-91
2022/08/14 19:31:33;;;;;;;;;;;26.00;75.20;;;;;;6206122;22;20291;-91
2022/08/14 19:34:08;;;;;;;;;;;26.00;74.40;;;;;;6236228;22;20290;-91
2022/08/14 19:36:48;;;;;;;;;;;25.90;77.60;;;;;;6214113;22;20450;-92
2022/08/14 19:39:14;;;;;;;;;;;25.80;76.10;;;;;;6211814;22;19961;-92
2022/08/14 19:41:40;;;;;;;;;;;25.70;77.80;;;;;;6262400;22;20487;-93
2022/08/14 19:44:05;;;;;;;;;;;25.50;79.80;;;;;;6207512;22;20381;-93
2022/08/14 19:46:34;;;;;;;;;;;25.50;82.50;;;;;;6231523;22;19915;-92
2022/08/14 19:49:02;;;;;;;;;;;25.50;84.60;;;;;;6205906;22;19965;-92
2022/08/14 19:51:38;;;;;;;;;;;25.30;84.20;;;;;;6212660;22;19922;-91
2022/08/14 19:54:10;;;;;;;;;;;25.20;84.30;;;;;;6211251;22;20246;-90
2022/08/14 19:56:36;;;;;;;;;;;25.20;85.50;;;;;;6209777;22;20463;-91
2022/08/14 19:59:02;;;;;;;;;;;25.10;85.30;;;;;;6211817;22;19989;-93
2022/08/14 20:01:31;;;;;;;;;;;25.00;86.30;;;;;;6232962;22;20400;-92
2022/08/14 20:03:56;;;;;;;;;;;24.90;85.70;;;;;;6210791;22;19961;-92
2022/08/14 20:06:25;;;;;;;;;;;24.80;89.20;;;;;;6238345;22;20235;-92
2022/08/14 20:08:58;;;;;;;;;;;24.80;89.30;;;;;;6239994;22;20272;-92
2022/08/14 20:11:25;;;;;;;;;;;24.70;89.10;;;;;;6209151;22;19919;-90
2022/08/14 20:14:03;;;;;;;;;;;24.60;90.30;;;;;;6214515;22;19918;-92
2022/08/14 20:16:35;;;;;;;;;;;24.60;90.20;;;;;;6240538;22;19919;-92
2022/08/14 20:19:10;;;;;;;;;;;24.50;90.40;;;;;;6237572;22;19919;-93
2022/08/14 20:21:40;;;;;;;;;;;24.40;90.20;;;;;;6216000;22;19986;-93
2022/08/14 20:24:39;;;;;;;;;;;24.40;91.10;;;;;;6215647;22;19965;-92
2022/08/14 22:33:41;;;;;;;;;;;22.20;96.00;;;;;;6254425;22;20339;-95
2022/08/14 22:36:46;;;;;;;;;;;22.20;97.70;;;;;;6201199;22;19995;-94
2022/08/14 22:38:58;;;;;;;;;;;22.20;97.60;;;;;;6228452;22;19938;-92
2022/08/14 22:41:27;;;;;;;;;;;22.10;97.70;;;;;;6203418;22;20272;-94
2022/08/14 22:43:53;;;;;;;;;;;22.10;98.50;;;;;;6205790;22;19919;-95
2022/08/14 22:46:19;;;;;;;;;;;22.10;99.10;;;;;;6198914;22;19963;-94
2022/08/14 22:48:45;;;;;;;;;;;22.00;98.50;;;;;;6224173;22;19981;-93
2022/08/14 22:51:12;;;;;;;;;;;22.00;97.60;;;;;;6201121;22;19961;-94
2022/08/14 22:53:40;;;;;;;;;;;22.00;96.20;;;;;;6251324;22;20521;-94
2022/08/14 22:56:05;;;;;;;;;;;22.00;95.40;;;;;;6206030;22;19930;-95
2022/08/14 22:58:31;;;;;;;;;;;22.00;95.30;;;;;;6200356;22;20389;-95